Time;durP1;ratioP1;P1;durP2;ratioP2;P2;SDS_P1;SDS_P2;PMS_P1;PMS_P2;Temp;Humidity;BMP_temperature;BMP_pressure;BME280_temperature;BME280_humidity;BME280_pressure;Samples;Min_cycle;Max_cycle;Signal;HPM_P1;HPM_P2
2023/08/12 00:00:13;;;;;;;2.28;1.33;;;;;;;20.05;48.75;100211.72;4482475;32;35027;-75
2023/08/12 00:02:42;;;;;;;4.18;2.10;;;;;;;20.07;48.71;100212.41;4480028;32;34607;-77
2023/08/12 00:05:11;;;;;;;2.97;1.85;;;;;;;19.92;49.19;100209.47;4480536;32;33346;-77
2023/08/12 00:07:42;;;;;;;3.83;1.95;;;;;;;19.84;49.52;100219.44;4480552;32;33814;-77
2023/08/12 00:10:11;;;;;;;4.72;2.47;;;;;;;19.91;49.31;100218.62;4482586;32;35170;-76
2023/08/12 00:12:38;;;;;;;2.90;1.55;;;;;;;19.86;49.38;100214.69;4482076;32;33562;-77
2023/08/12 00:15:08;;;;;;;2.90;1.67;;;;;;;19.76;49.66;100218.38;4481651;32;33300;-76
2023/08/12 00:17:37;;;;;;;2.05;1.40;;;;;;;19.67;49.87;100208.50;4481788;32;33406;-76
2023/08/12 00:20:06;;;;;;;3.22;2.12;;;;;;;19.67;49.66;100211.22;4481779;32;33941;-78
2023/08/12 00:22:34;;;;;;;2.22;1.50;;;;;;;19.72;49.57;100206.16;4476895;32;33512;-74
2023/08/12 00:25:02;;;;;;;6.12;1.95;;;;;;;19.80;49.42;100204.47;4480659;31;33344;-75
2023/08/12 00:27:30;;;;;;;1.52;1.20;;;;;;;19.88;49.20;100204.53;4480601;32;34758;-75
2023/08/12 00:29:58;;;;;;;3.42;1.80;;;;;;;19.86;49.24;100204.69;4481535;32;33800;-75
2023/08/12 00:32:25;;;;;;;5.30;1.90;;;;;;;19.83;49.48;100212.31;4481737;32;35347;-75
2023/08/12 00:34:53;;;;;;;2.78;1.60;;;;;;;19.77;49.57;100208.38;4482283;32;34598;-75
2023/08/12 00:37:21;;;;;;;4.25;1.98;;;;;;;19.58;50.17;100198.56;4481082;32;34848;-75
2023/08/12 00:39:48;;;;;;;3.55;1.83;;;;;;;19.84;49.47;100205.84;4481715;32;34488;-75
2023/08/12 00:42:16;;;;;;;6.75;1.87;;;;;;;19.85;49.35;100208.41;4481427;32;33593;-75
2023/08/12 00:44:44;;;;;;;3.15;1.80;;;;;;;19.90;49.17;100199.75;4481682;32;33258;-75
2023/08/12 00:47:12;;;;;;;5.00;2.35;;;;;;;19.84;49.28;100204.00;4480350;32;33262;-75
2023/08/12 00:49:43;;;;;;;3.80;2.50;;;;;;;19.88;49.19;100190.94;4480250;32;34897;-76
2023/08/12 00:52:14;;;;;;;5.62;1.87;;;;;;;19.84;49.35;100192.28;4481022;32;33898;-75
2023/08/12 00:54:42;;;;;;;4.75;2.08;;;;;;;19.85;49.27;100196.72;4472049;32;33211;-77
2023/08/12 00:57:09;;;;;;;4.18;1.92;;;;;;;19.87;49.18;100189.22;4480496;32;33787;-75
2023/08/12 00:59:37;;;;;;;3.67;1.70;;;;;;;19.83;49.27;100190.56;4480557;32;33938;-72
2023/08/12 01:02:05;;;;;;;2.60;1.77;;;;;;;19.93;49.00;100194.84;4480300;32;34826;-74
2023/08/12 01:04:34;;;;;;;3.62;2.00;;;;;;;19.87;49.06;100192.81;4484624;32;33218;-74
2023/08/12 01:07:01;;;;;;;3.83;2.22;;;;;;;19.87;49.05;100190.09;4483944;32;34945;-75
2023/08/12 01:09:30;;;;;;;3.78;2.03;;;;;;;19.91;49.03;100193.34;4484308;32;33888;-75
2023/08/12 01:12:03;;;;;;;3.12;2.10;;;;;;;19.94;48.99;100187.56;4476743;32;33599;-75
2023/08/12 01:14:36;;;;;;;1.77;1.23;;;;;;;19.93;48.93;100186.69;4480800;32;34136;-74
2023/08/12 01:17:07;;;;;;;5.07;1.92;;;;;;;19.94;48.96;100190.28;4469548;32;33526;-74
2023/08/12 01:19:38;;;;;;;4.22;2.47;;;;;;;19.97;48.87;100193.53;4483684;32;34695;-78
2023/08/12 01:22:10;;;;;;;3.83;2.03;;;;;;;19.84;49.21;100193.16;4483549;32;34929;-79
2023/08/12 01:24:39;;;;;;;2.65;1.87;;;;;;;19.86;49.24;100190.25;4476069;31;34377;-78
2023/08/12 01:27:08;;;;;;;2.80;1.80;;;;;;;19.81;49.30;100198.91;4476192;32;33591;-79
2023/08/12 01:29:40;;;;;;;6.07;2.10;;;;;;;19.92;49.14;100195.03;4464567;32;34115;-78
2023/08/12 01:32:18;;;;;;;3.37;1.77;;;;;;;19.97;49.08;100200.84;4460415;32;33285;-79
2023/08/12 01:35:08;;;;;;;2.62;1.70;;;;;;;19.99;49.11;100201.50;4465620;32;33221;-78
2023/08/12 01:37:37;;;;;;;3.25;1.95;;;;;;;19.97;49.17;100198.97;4421947;32;34160;-80
2023/08/12 01:40:06;;;;;;;10.35;2.45;;;;;;;19.97;49.19;100201.69;4403041;32;33596;-78
2023/08/12 01:42:34;;;;;;;3.47;1.90;;;;;;;20.00;49.26;100197.78;4391010;32;34241;-77
2023/08/12 01:45:03;;;;;;;3.00;1.67;;;;;;;19.97;49.43;100198.12;4390637;32;32993;-79
2023/08/12 01:47:32;;;;;;;4.03;2.50;;;;;;;19.94;49.55;100207.44;4403913;32;33887;-80
2023/08/12 01:49:59;;;;;;;4.20;2.15;;;;;;;19.95;49.66;100200.97;4399614;32;35241;-80
2023/08/12 01:52:28;;;;;;;4.20;2.15;;;;;;;19.94;49.77;100202.00;4403736;32;33546;-79
2023/08/12 01:54:56;;;;;;;3.33;1.67;;;;;;;19.95;49.84;100202.84;4403465;32;32255;-79
2023/08/12 01:57:24;;;;;;;4.65;1.92;;;;;;;20.02;49.75;100199.31;4402915;32;33963;-76
2023/08/12 01:59:52;;;;;;;3.97;2.22;;;;;;;20.07;49.79;100211.56;4402905;32;33573;-80
2023/08/12 02:02:20;;;;;;;3.65;1.70;;;;;;;20.11;49.86;100207.50;4402450;32;33520;-77
2023/08/12 02:04:48;;;;;;;3.60;1.62;;;;;;;20.14;49.72;100205.28;4402738;32;32571;-79
2023/08/12 02:07:15;;;;;;;2.55;1.77;;;;;;;20.13;49.82;100203.59;4396767;32;33893;-80
2023/08/12 02:09:43;;;;;;;5.80;2.17;;;;;;;20.08;50.02;100203.22;4401310;32;33615;-85
2023/08/12 02:12:12;;;;;;;3.45;1.90;;;;;;;20.14;49.74;100205.28;4403417;32;32701;-80
2023/08/12 02:14:39;;;;;;;2.55;1.62;;;;;;;20.13;49.86;100206.31;4421167;32;32943;-80
2023/08/12 02:17:07;;;;;;;5.93;1.95;;;;;;;20.01;50.13;100205.75;4456881;32;33200;-79
2023/08/12 02:19:35;;;;;;;18.10;2.20;;;;;;;20.13;49.49;100200.88;4484094;32;35479;-79
2023/08/12 02:22:04;;;;;;;6.10;1.90;;;;;;;19.99;49.77;100201.50;4483764;32;33520;-79
2023/08/12 02:24:31;;;;;;;3.37;1.95;;;;;;;19.94;50.03;100201.16;4482781;32;33232;-79
2023/08/12 02:26:59;;;;;;;3.20;1.98;;;;;;;20.10;49.55;100198.50;4480388;32;34957;-79
2023/08/12 02:29:27;;;;;;;4.05;2.37;;;;;;;20.06;49.66;100202.53;4483728;32;33789;-88
2023/08/12 02:31:55;;;;;;;3.10;1.75;;;;;;;20.04;49.68;100203.75;4482824;32;34568;-88
2023/08/12 02:34:23;;;;;;;4.03;1.83;;;;;;;20.01;49.74;100196.75;4483310;32;33208;-76
2023/08/12 02:36:51;;;;;;;2.78;1.60;;;;;;;19.98;49.95;100197.09;4483904;32;33799;-76
2023/08/12 02:39:19;;;;;;;3.53;1.75;;;;;;;20.00;49.82;100195.06;4483643;32;33947;-76
2023/08/12 02:41:46;;;;;;;7.53;2.12;;;;;;;19.98;49.80;100191.66;4483400;32;32486;-76
2023/08/12 02:44:14;;;;;;;4.00;1.70;;;;;;;19.96;49.71;100196.41;4482978;31;33411;-76
2023/08/12 02:46:42;;;;;;;2.50;1.33;;;;;;;19.97;49.69;100200.84;4483237;32;33799;-75
2023/08/12 02:49:09;;;;;;;3.67;1.85;;;;;;;19.86;49.73;100199.25;4483668;32;35342;-75
2023/08/12 02:51:37;;;;;;;3.40;1.70;;;;;;;19.84;49.59;100195.88;4483047;32;33688;-76
2023/08/12 02:54:05;;;;;;;6.20;2.28;;;;;;;19.81;49.63;100198.03;4475574;32;33196;-74
2023/08/12 02:56:33;;;;;;;4.90;1.98;;;;;;;19.64;50.19;100186.25;4482224;32;33508;-74
2023/08/12 02:59:00;;;;;;;4.57;2.20;;;;;;;19.68;50.02;100193.94;4480617;32;34950;-74
2023/08/12 03:01:28;;;;;;;4.82;2.40;;;;;;;19.74;49.91;100198.72;4473963;32;35018;-74
2023/08/12 03:03:56;;;;;;;6.00;2.65;;;;;;;19.75;49.85;100192.25;4482521;32;33312;-74
2023/08/12 03:06:24;;;;;;;3.55;2.28;;;;;;;19.70;49.77;100191.03;4483911;32;33920;-74
2023/08/12 03:08:52;;;;;;;4.68;2.47;;;;;;;19.66;49.89;100190.50;4483263;32;34745;-74
2023/08/12 03:11:19;;;;;;;3.53;2.20;;;;;;;19.69;49.76;100192.91;4483040;32;34650;-76
2023/08/12 03:13:47;;;;;;;4.95;2.50;;;;;;;19.71;49.68;100190.88;4482628;32;33035;-73
2023/08/12 03:16:15;;;;;;;3.55;2.00;;;;;;;19.67;49.79;100185.91;4480995;32;33345;-73
2023/08/12 03:18:43;;;;;;;3.90;2.15;;;;;;;19.67;49.76;100191.34;4482157;32;35023;-73
2023/08/12 03:21:11;;;;;;;3.28;1.70;;;;;;;19.66;49.76;100192.38;4484513;32;33561;-73
2023/08/12 03:23:39;;;;;;;2.92;1.73;;;;;;;19.68;49.70;100193.06;4481769;31;33112;-73
2023/08/12 03:26:08;;;;;;;2.83;1.87;;;;;;;19.68;49.57;100191.22;4478414;32;34731;-73
2023/08/12 03:28:36;;;;;;;4.62;1.87;;;;;;;19.64;49.72;100197.94;4480610;32;33517;-73
2023/08/12 03:31:03;;;;;;;3.58;1.73;;;;;;;19.67;49.65;100196.78;4483610;32;34726;-73
2023/08/12 03:33:33;;;;;;;4.85;1.95;;;;;;;19.69;49.53;100197.47;4481764;32;33169;-73
2023/08/12 03:36:01;;;;;;;11.93;2.42;;;;;;;19.52;50.03;100196.53;4482814;32;33762;-81
2023/08/12 03:38:29;;;;;;;3.95;2.00;;;;;;;19.58;49.71;100197.72;4476753;32;33873;-75
2023/08/12 03:40:57;;;;;;;3.08;1.83;;;;;;;19.49;49.81;100202.28;4481580;32;34526;-76
2023/08/12 03:43:24;;;;;;;4.28;1.55;;;;;;;19.42;50.13;100204.78;4484203;31;33347;-73
2023/08/12 03:45:52;;;;;;;2.95;1.60;;;;;;;19.47;50.04;100204.28;4483872;32;34980;-73
2023/08/12 03:48:20;;;;;;;4.37;2.08;;;;;;;19.39;50.39;100210.53;4481675;32;34976;-73
2023/08/12 03:50:48;;;;;;;3.25;1.87;;;;;;;19.36;50.50;100212.69;4482545;32;33847;-75
2023/08/12 03:53:17;;;;;;;2.35;1.62;;;;;;;19.24;50.74;100215.69;4474660;32;33382;-73
2023/08/12 03:55:45;;;;;;;7.80;2.55;;;;;;;19.17;51.06;100211.06;4483151;32;34768;-72
2023/08/12 03:58:14;;;;;;;2.92;1.87;;;;;;;19.21;51.03;100213.28;4482654;32;34009;-70
2023/08/12 04:00:45;;;;;;;5.43;2.00;;;;;;;19.21;51.10;100218.72;4484062;32;34545;-73
2023/08/12 04:03:13;;;;;;;3.90;1.75;;;;;;;19.13;51.19;100215.94;4480646;32;34274;-71
2023/08/12 04:05:52;;;;;;;3.10;1.67;;;;;;;19.09;51.30;100211.84;4480910;32;33611;-71
2023/08/12 04:08:22;;;;;;;2.60;1.95;;;;;;;19.13;51.36;100209.66;4475732;31;34163;-72
2023/08/12 04:10:50;;;;;;;3.03;1.60;;;;;;;19.09;51.58;100214.56;4482898;32;33224;-71
2023/08/12 04:13:18;;;;;;;5.70;1.95;;;;;;;19.14;51.64;100219.53;4480507;32;32982;-71
2023/08/12 04:15:55;;;;;;;2.60;1.98;;;;;;;19.20;51.64;100216.19;4474585;32;33651;-72
2023/08/12 04:18:25;;;;;;;4.18;2.28;;;;;;;19.22;51.67;100220.41;4482792;32;33719;-72
2023/08/12 04:20:53;;;;;;;2.17;1.65;;;;;;;19.20;51.85;100218.88;4483807;32;34325;-72
2023/08/12 04:23:21;;;;;;;3.05;1.42;;;;;;;19.23;51.90;100218.53;4482889;32;34347;-73
2023/08/12 04:25:49;;;;;;;3.83;2.42;;;;;;;19.27;51.97;100218.09;4479357;31;33417;-74
2023/08/12 04:28:18;;;;;;;4.35;2.37;;;;;;;19.36;52.02;100228.97;4482177;32;35256;-73
2023/08/12 04:30:50;;;;;;;4.97;2.08;;;;;;;19.42;51.90;100231.94;4481118;32;33720;-74
2023/08/12 04:33:22;;;;;;;4.93;1.95;;;;;;;19.52;51.71;100229.09;4480855;31;34502;-72
2023/08/12 04:35:50;;;;;;;3.30;2.00;;;;;;;19.53;51.84;100236.22;4482246;32;33605;-72
2023/08/12 04:38:18;;;;;;;4.28;1.98;;;;;;;19.43;52.20;100230.06;4482228;32;35709;-73
2023/08/12 04:40:46;;;;;;;4.32;1.67;;;;;;;19.64;51.77;100229.69;4479451;32;33581;-73
2023/08/12 04:43:13;;;;;;;3.35;1.67;;;;;;;19.77;51.40;100235.53;4479580;32;33292;-73
2023/08/12 04:45:45;;;;;;;3.47;2.22;;;;;;;19.82;51.43;100235.91;4482310;32;34745;-76
2023/08/12 04:48:14;;;;;;;5.25;1.85;;;;;;;19.93;51.32;100238.31;4482555;32;34892;-76
2023/08/12 04:50:42;;;;;;;2.50;1.37;;;;;;;20.01;51.06;100241.09;4483544;32;33602;-76
2023/08/12 04:53:10;;;;;;;6.32;2.15;;;;;;;20.06;51.02;100239.72;4481219;32;33153;-76
2023/08/12 04:55:38;;;;;;;3.72;1.95;;;;;;;20.13;50.94;100238.94;4481040;32;33889;-76
2023/08/12 04:58:06;;;;;;;3.40;2.20;;;;;;;20.18;50.63;100236.56;4480709;32;33855;-76
2023/08/12 05:00:33;;;;;;;5.50;1.87;;;;;;;20.38;50.47;100242.56;4476855;32;33764;-76
2023/08/12 05:03:02;;;;;;;2.95;1.55;;;;;;;20.87;49.20;100236.41;4480965;32;34151;-77
2023/08/12 05:05:30;;;;;;;8.48;2.20;;;;;;;21.14;48.46;100232.47;4482585;32;33828;-76
2023/08/12 05:07:57;;;;;;;2.97;1.70;;;;;;;21.52;47.64;100235.50;4482240;32;33871;-76
2023/08/12 05:10:25;;;;;;;3.30;1.70;;;;;;;21.40;48.12;100237.72;4482096;32;32521;-75
2023/08/12 05:12:54;;;;;;;2.67;1.58;;;;;;;21.38;48.36;100231.62;4480679;32;33060;-76
2023/08/12 05:15:22;;;;;;;3.17;1.73;;;;;;;21.37;48.33;100232.63;4480683;32;33492;-76
2023/08/12 05:17:50;;;;;;;6.37;2.45;;;;;;;21.36;48.76;100229.06;4481214;32;33886;-76
2023/08/12 05:20:18;;;;;;;3.17;1.83;;;;;;;21.42;48.95;100232.12;4480457;32;33336;-76
2023/08/12 05:22:46;;;;;;;2.70;1.65;;;;;;;21.54;48.68;100233.44;4481807;32;33134;-76
2023/08/12 05:25:14;;;;;;;6.97;1.52;;;;;;;21.68;48.46;100240.06;4481387;32;33677;-76
2023/08/12 05:27:42;;;;;;;4.43;1.87;;;;;;;21.89;48.03;100234.03;4479995;32;33698;-76
2023/08/12 05:30:10;;;;;;;3.37;1.65;;;;;;;21.94;48.46;100237.94;4471067;32;33999;-76
2023/08/12 05:32:38;;;;;;;3.90;1.75;;;;;;;22.44;47.21;100233.97;4475024;32;34475;-77
2023/08/12 05:35:06;;;;;;;3.75;1.77;;;;;;;22.59;47.15;100235.91;4481283;32;34529;-77
2023/08/12 05:37:34;;;;;;;4.10;2.17;;;;;;;22.93;46.42;100224.59;4479402;32;35026;-75
2023/08/12 05:40:03;;;;;;;2.72;1.62;;;;;;;23.24;45.33;100230.81;4476213;31;33978;-75
2023/08/12 05:42:30;;;;;;;5.30;2.25;;;;;;;23.40;44.92;100232.56;4479448;32;33148;-74
2023/08/12 05:44:58;;;;;;;4.15;2.10;;;;;;;23.28;45.76;100225.00;4480816;32;33617;-74
2023/08/12 05:47:26;;;;;;;3.78;2.20;;;;;;;23.33;45.74;100222.53;4481652;32;33916;-74
2023/08/12 05:49:54;;;;;;;3.92;2.30;;;;;;;23.16;46.05;100228.16;4481921;32;33598;-75
2023/08/12 05:52:21;;;;;;;9.55;2.42;;;;;;;23.01;46.42;100222.66;4479565;31;33273;-73
2023/08/12 05:54:49;;;;;;;3.70;2.05;;;;;;;22.84;46.67;100228.41;4484016;32;33756;-72
2023/08/12 05:57:16;;;;;;;5.40;2.75;;;;;;;22.97;46.37;100237.69;4482654;31;34116;-74
2023/08/12 05:59:44;;;;;;;3.78;2.10;;;;;;;22.74;46.73;100224.03;4483490;32;33561;-72
2023/08/12 06:02:12;;;;;;;5.03;2.10;;;;;;;22.75;46.54;100235.78;4473009;31;32154;-74
2023/08/12 06:04:40;;;;;;;3.92;1.92;;;;;;;22.83;47.31;100229.44;4482464;32;34019;-73
2023/08/12 06:07:08;;;;;;;3.10;1.70;;;;;;;22.92;46.31;100231.94;4483601;32;35022;-74
2023/08/12 06:09:35;;;;;;;4.30;2.20;;;;;;;22.91;45.69;100227.47;4483545;32;34639;-76
2023/08/12 06:12:04;;;;;;;7.72;2.22;;;;;;;22.83;44.80;100222.09;4481955;32;33169;-75
2023/08/12 06:14:31;;;;;;;7.30;2.78;;;;;;;22.94;44.85;100234.50;4483679;32;33838;-76
2023/08/12 06:16:59;;;;;;;5.72;2.50;;;;;;;22.91;45.29;100224.75;4482195;32;33958;-73
2023/08/12 06:19:27;;;;;;;5.20;2.35;;;;;;;22.78;45.83;100232.72;4475362;31;33808;-75
2023/08/12 06:21:54;;;;;;;4.43;2.58;;;;;;;22.67;46.74;100227.69;4483025;31;33867;-72
2023/08/12 06:24:22;;;;;;;3.40;2.05;;;;;;;22.62;45.94;100230.94;4481795;32;33576;-72
2023/08/12 06:26:49;;;;;;;6.25;2.25;;;;;;;22.92;46.47;100233.78;4484474;32;35462;-70
2023/08/12 06:29:17;;;;;;;4.50;2.25;;;;;;;22.96;46.05;100233.28;4483842;32;33501;-70
2023/08/12 06:31:45;;;;;;;11.20;3.35;;;;;;;23.17;46.13;100234.47;4482835;32;34528;-69
2023/08/12 06:34:12;;;;;;;3.75;2.25;;;;;;;23.17;46.97;100237.19;4482460;31;35359;-70
2023/08/12 06:36:40;;;;;;;4.90;2.10;;;;;;;23.42;46.32;100232.34;4483203;32;35108;-71
2023/08/12 06:39:07;;;;;;;6.70;2.17;;;;;;;23.59;46.21;100233.87;4477500;32;33530;-75
2023/08/12 06:41:35;;;;;;;4.62;2.37;;;;;;;23.70;45.61;100232.59;4481939;32;32970;-73
2023/08/12 06:44:04;;;;;;;7.20;2.87;;;;;;;23.56;45.12;100233.37;4482617;32;33918;-72
2023/08/12 06:46:31;;;;;;;3.75;2.12;;;;;;;23.25;45.73;100229.78;4481126;32;33936;-71
2023/08/12 06:48:59;;;;;;;9.40;2.47;;;;;;;23.22;45.75;100226.56;4480284;32;33558;-71
2023/08/12 06:51:27;;;;;;;4.90;2.95;;;;;;;23.33;46.24;100222.53;4479704;32;32117;-74
2023/08/12 06:53:54;;;;;;;5.40;2.67;;;;;;;23.25;46.64;100228.94;4481859;32;34913;-73
2023/08/12 06:56:22;;;;;;;3.90;2.37;;;;;;;23.62;45.57;100221.72;4476172;32;34193;-76
2023/08/12 06:58:50;;;;;;;4.68;2.67;;;;;;;23.82;44.96;100224.75;4475997;32;33926;-72
2023/08/12 07:01:17;;;;;;;4.65;2.17;;;;;;;23.94;45.41;100221.34;4473299;32;33365;-73
2023/08/12 07:03:45;;;;;;;3.97;2.37;;;;;;;23.95;45.41;100227.69;4474286;31;34938;-73
2023/08/12 07:06:13;;;;;;;7.35;2.90;;;;;;;24.14;44.66;100231.69;4475703;31;34663;-73
2023/08/12 07:08:40;;;;;;;4.68;2.65;;;;;;;24.13;44.17;100232.75;4477269;31;34240;-71
2023/08/12 07:11:08;;;;;;;5.45;2.75;;;;;;;24.35;43.86;100230.91;4468705;32;33552;-71
2023/08/12 07:13:35;;;;;;;5.22;1.85;;;;;;;24.26;43.72;100229.34;4478555;32;34424;-71
2023/08/12 07:16:03;;;;;;;4.78;1.85;;;;;;;24.08;43.72;100229.75;4478582;32;33924;-71
2023/08/12 07:18:31;;;;;;;7.18;2.10;;;;;;;24.39;43.36;100233.06;4482838;32;33906;-71
2023/08/12 07:20:59;;;;;;;4.75;2.70;;;;;;;24.29;43.00;100234.41;4483495;32;34063;-71
2023/08/12 07:23:27;;;;;;;3.55;2.05;;;;;;;24.42;42.43;100225.56;4481768;32;33968;-68
2023/08/12 07:25:55;;;;;;;5.40;2.83;;;;;;;24.08;43.69;100232.50;4481595;31;33901;-71
2023/08/12 07:28:22;;;;;;;3.37;1.80;;;;;;;24.23;43.43;100241.50;4480070;32;33705;-72
2023/08/12 07:30:50;;;;;;;5.00;2.25;;;;;;;24.24;43.34;100237.75;4482558;32;33384;-71
2023/08/12 07:33:19;;;;;;;4.37;2.47;;;;;;;24.48;42.70;100228.38;4470848;32;33657;-71
2023/08/12 07:35:47;;;;;;;2.47;1.70;;;;;;;24.50;43.21;100234.50;4482017;32;35279;-71
2023/08/12 07:38:15;;;;;;;5.00;2.53;;;;;;;24.76;42.65;100233.94;4483391;32;34507;-71
2023/08/12 07:40:42;;;;;;;3.45;2.12;;;;;;;24.87;42.53;100241.59;4473196;32;34740;-71
2023/08/12 07:43:10;;;;;;;4.55;2.12;;;;;;;25.05;42.84;100230.19;4479839;32;33582;-71
2023/08/12 07:45:37;;;;;;;3.70;2.25;;;;;;;25.08;42.07;100232.53;4468078;31;34086;-72
2023/08/12 07:48:05;;;;;;;4.25;2.47;;;;;;;25.30;41.28;100227.91;4482150;31;34009;-72
2023/08/12 07:50:33;;;;;;;7.07;2.40;;;;;;;25.19;42.68;100228.44;4483242;32;33080;-72
2023/08/12 07:53:01;;;;;;;3.90;2.08;;;;;;;25.26;41.48;100226.59;4482558;32;32609;-71
2023/08/12 07:55:29;;;;;;;4.05;2.37;;;;;;;25.32;42.52;100231.28;4483421;31;35261;-71
2023/08/12 07:57:57;;;;;;;3.92;1.73;;;;;;;25.54;41.36;100226.59;4483089;32;34839;-71
2023/08/12 08:00:24;;;;;;;18.90;2.80;;;;;;;25.64;40.97;100219.91;4477051;31;33319;-71
2023/08/12 08:02:52;;;;;;;6.60;2.80;;;;;;;25.65;40.82;100227.09;4478841;32;33096;-72
2023/08/12 08:05:19;;;;;;;8.13;2.45;;;;;;;25.78;40.04;100225.28;4474753;32;34506;-71
2023/08/12 08:07:47;;;;;;;6.60;2.50;;;;;;;25.31;41.54;100235.06;4480201;31;32036;-71
2023/08/12 08:10:15;;;;;;;6.60;2.58;;;;;;;25.70;41.05;100228.19;4479443;31;34702;-71
2023/08/12 08:12:43;;;;;;;3.25;1.85;;;;;;;25.84;40.47;100222.81;4481099;32;33796;-71
2023/08/12 08:15:10;;;;;;;2.65;1.80;;;;;;;26.07;40.47;100220.63;4482219;32;33780;-71
2023/08/12 08:17:38;;;;;;;4.03;1.67;;;;;;;25.97;40.01;100220.13;4482925;32;34673;-71
2023/08/12 08:20:06;;;;;;;4.37;2.50;;;;;;;25.85;41.48;100217.13;4482727;32;33171;-71
2023/08/12 08:22:34;;;;;;;7.05;2.75;;;;;;;25.59;41.33;100215.06;4473102;32;33550;-73
2023/08/12 08:25:02;;;;;;;4.47;2.40;;;;;;;25.86;40.39;100216.06;4475107;32;34923;-71
2023/08/12 08:27:30;;;;;;;4.85;2.60;;;;;;;25.98;41.29;100222.69;4479803;32;34669;-72
2023/08/12 08:29:57;;;;;;;3.65;2.08;;;;;;;26.24;39.83;100223.84;4481970;32;34263;-72
2023/08/12 08:32:25;;;;;;;5.28;2.30;;;;;;;25.64;40.74;100223.50;4482069;32;34968;-72
2023/08/12 08:34:53;;;;;;;2.83;1.62;;;;;;;26.11;41.53;100218.31;4469415;32;35017;-73
2023/08/12 08:37:20;;;;;;;3.95;2.25;;;;;;;26.23;40.95;100220.25;4482550;32;33688;-71
2023/08/12 08:39:48;;;;;;;3.37;1.80;;;;;;;26.31;40.34;100213.72;4480169;32;33464;-71
2023/08/12 08:42:18;;;;;;;4.20;2.17;;;;;;;26.06;41.46;100218.06;4480474;32;34609;-70
2023/08/12 08:44:46;;;;;;;7.05;2.25;;;;;;;26.17;40.46;100214.75;4481093;32;34200;-71
2023/08/12 08:47:15;;;;;;;6.28;2.70;;;;;;;26.39;40.59;100209.97;4469280;32;34093;-71
2023/08/12 08:49:42;;;;;;;5.78;2.60;;;;;;;25.99;41.47;100221.62;4475648;32;33464;-71
2023/08/12 08:52:10;;;;;;;3.35;1.83;;;;;;;26.64;40.47;100213.00;4479426;32;34236;-71
2023/08/12 08:54:39;;;;;;;3.42;1.90;;;;;;;26.94;38.85;100210.72;4468646;32;34915;-71
2023/08/12 08:57:08;;;;;;;4.37;2.55;;;;;;;26.89;38.57;100207.75;4481890;32;34408;-71
2023/08/12 08:59:48;;;;;;;7.82;3.55;;;;;;;26.95;39.29;100206.91;4480201;32;33637;-72
2023/08/12 09:02:25;;;;;;;4.28;2.03;;;;;;;26.62;41.13;100210.47;4481459;32;33683;-71
2023/08/12 09:04:54;;;;;;;5.70;2.28;;;;;;;26.94;39.47;100208.00;4469256;32;34377;-72
2023/08/12 09:07:23;;;;;;;4.97;2.33;;;;;;;26.92;40.26;100215.56;4479975;32;33821;-73
2023/08/12 09:09:52;;;;;;;5.40;2.78;;;;;;;27.18;39.05;100215.59;4469529;32;32725;-76
2023/08/12 09:12:20;;;;;;;4.20;2.53;;;;;;;27.25;37.43;100203.78;4468140;32;32371;-71
2023/08/12 09:14:48;;;;;;;3.95;2.15;;;;;;;27.40;37.65;100207.16;4460563;32;34820;-75
2023/08/12 09:17:16;;;;;;;5.30;2.08;;;;;;;27.46;37.34;100209.03;4466960;32;33892;-73
2023/08/12 09:19:44;;;;;;;3.40;1.87;;;;;;;27.64;36.91;100211.97;4468922;31;34113;-74
2023/08/12 09:22:12;;;;;;;3.10;1.85;;;;;;;27.96;36.20;100200.25;4469804;31;34831;-73
2023/08/12 09:24:42;;;;;;;3.47;2.15;;;;;;;27.81;35.85;100204.13;4474938;31;34941;-73
2023/08/12 09:27:11;;;;;;;4.65;2.12;;;;;;;28.21;35.10;100203.97;4445680;32;33617;-74
2023/08/12 09:29:38;;;;;;;6.12;2.35;;;;;;;28.29;36.08;100191.88;4439543;32;33151;-74
2023/08/12 09:32:13;;;;;;;4.32;2.33;;;;;;;27.83;36.23;100195.66;4443213;32;33587;-73
2023/08/12 09:34:54;;;;;;;6.40;2.47;;;;;;;27.81;35.63;100190.38;4449579;32;34076;-73
2023/08/12 09:37:23;;;;;;;5.68;2.47;;;;;;;28.09;35.37;100195.56;4446048;32;33521;-73
2023/08/12 09:39:52;;;;;;;5.10;2.47;;;;;;;27.69;35.66;100185.72;4441761;32;33537;-79
2023/08/12 09:42:20;;;;;;;4.35;1.98;;;;;;;28.22;35.84;100180.91;4444634;32;33741;-77
2023/08/12 09:44:49;;;;;;;4.45;2.42;;;;;;;28.65;35.06;100184.91;4456400;32;33662;-78
2023/08/12 09:47:18;;;;;;;4.65;2.45;;;;;;;28.46;34.87;100181.22;4455871;32;33052;-75
2023/08/12 09:49:45;;;;;;;6.97;2.42;;;;;;;28.29;34.10;100183.63;4459068;32;33003;-74
2023/08/12 09:52:13;;;;;;;3.58;2.08;;;;;;;28.47;33.79;100180.97;4464259;32;33551;-76
2023/08/12 09:54:41;;;;;;;7.05;2.28;;;;;;;28.90;34.46;100174.75;4459633;32;34105;-78
2023/08/12 09:57:11;;;;;;;4.93;2.40;;;;;;;29.29;32.46;100171.91;4457521;32;33284;-71
2023/08/12 09:59:41;;;;;;;5.95;2.40;;;;;;;28.89;33.24;100174.97;4480120;32;34252;-71
2023/08/12 10:02:12;;;;;;;4.15;2.12;;;;;;;29.44;32.55;100170.47;4473525;32;33507;-71
2023/08/12 10:04:42;;;;;;;5.03;1.90;;;;;;;29.52;32.39;100169.31;4481242;32;33845;-71
2023/08/12 10:07:10;;;;;;;4.05;2.10;;;;;;;30.03;31.25;100167.28;4467723;32;34633;-71
2023/08/12 10:09:37;;;;;;;3.72;2.17;;;;;;;29.92;32.61;100167.00;4473138;32;34224;-72
2023/08/12 10:12:07;;;;;;;3.15;1.90;;;;;;;30.12;30.94;100165.91;4479654;32;33980;-71
2023/08/12 10:14:34;;;;;;;4.60;2.20;;;;;;;29.96;31.58;100158.25;4480621;32;33931;-71
2023/08/12 10:17:02;;;;;;;3.95;1.90;;;;;;;29.96;31.80;100155.50;4467309;32;34754;-73
2023/08/12 10:19:33;;;;;;;3.92;2.28;;;;;;;30.02;32.10;100157.34;4469463;31;33160;-71
2023/08/12 10:22:03;;;;;;;4.37;1.98;;;;;;;30.04;31.79;100160.69;4481611;32;33851;-71
2023/08/12 10:24:31;;;;;;;3.92;1.95;;;;;;;30.03;30.79;100159.84;4478008;32;33480;-71
2023/08/12 10:26:59;;;;;;;3.40;1.70;;;;;;;29.75;31.72;100154.88;4468645;32;33568;-71
2023/08/12 10:29:26;;;;;;;4.30;2.08;;;;;;;29.73;31.84;100157.03;4481088;32;33409;-71
2023/08/12 10:31:56;;;;;;;4.47;2.20;;;;;;;29.59;32.09;100153.53;4469124;32;33691;-71
2023/08/12 10:34:25;;;;;;;3.75;2.00;;;;;;;28.75;32.63;100154.97;4471544;31;33716;-71
2023/08/12 10:36:56;;;;;;;3.78;2.15;;;;;;;28.85;32.54;100158.06;4481684;32;34858;-71
2023/08/12 10:39:34;;;;;;;5.10;2.30;;;;;;;28.68;32.60;100151.41;4480325;32;34273;-71
2023/08/12 10:42:02;;;;;;;4.82;2.83;;;;;;;29.23;32.24;100141.41;4483426;32;34011;-71
2023/08/12 10:44:43;;;;;;;4.40;2.33;;;;;;;28.93;32.97;100148.69;4480077;32;37291;-71
2023/08/12 10:47:13;;;;;;;4.47;2.33;;;;;;;28.39;33.62;100141.84;4482156;32;33836;-71
2023/08/12 10:49:49;;;;;;;5.72;2.17;;;;;;;29.31;31.94;100143.06;4482299;32;33166;-71
2023/08/12 10:52:27;;;;;;;4.25;2.20;;;;;;;29.40;32.47;100138.91;4482382;32;34056;-71
2023/08/12 10:54:54;;;;;;;3.65;1.85;;;;;;;29.78;30.91;100142.53;4478574;32;34077;-71
2023/08/12 10:57:37;;;;;;;3.97;2.10;;;;;;;29.77;31.77;100136.19;4482020;32;34227;-71
2023/08/12 11:00:07;;;;;;;3.75;2.20;;;;;;;30.14;31.09;100127.84;4480867;32;33871;-71
2023/08/12 11:02:37;;;;;;;4.30;2.28;;;;;;;29.93;30.94;100140.25;4469579;32;34513;-72
2023/08/12 11:05:09;;;;;;;5.87;2.17;;;;;;;30.23;31.43;100132.00;4476479;32;34910;-71
2023/08/12 11:08:01;;;;;;;3.60;2.00;;;;;;;30.68;29.93;100125.16;4482360;32;33947;-71
2023/08/12 11:10:34;;;;;;;4.32;2.25;;;;;;;30.84;30.28;100124.50;4478456;32;33268;-71
2023/08/12 11:13:02;;;;;;;5.82;2.00;;;;;;;29.87;32.84;100119.94;4481186;32;33880;-71
2023/08/12 11:15:46;;;;;;;5.37;2.17;;;;;;;30.74;30.07;100118.69;4484012;32;34253;-71
2023/08/12 11:18:18;;;;;;;7.32;2.50;;;;;;;30.86;29.23;100117.66;4480266;32;35634;-71
2023/08/12 11:20:47;;;;;;;5.40;2.05;;;;;;;30.94;29.35;100110.91;4481393;32;33561;-71
2023/08/12 11:23:15;;;;;;;4.10;1.92;;;;;;;30.91;29.94;100105.88;4480616;32;34940;-71
2023/08/12 11:25:44;;;;;;;4.57;2.35;;;;;;;30.62;28.91;100099.31;4478089;32;34888;-71
2023/08/12 11:28:12;;;;;;;4.30;2.30;;;;;;;30.69;28.96;100096.44;4473088;32;34659;-71
2023/08/12 11:30:42;;;;;;;10.00;2.87;;;;;;;30.58;29.99;100098.13;4481056;32;34176;-71